Flight Track Log - Related Links

Times and Time Zones

All times are in EDT time to prevent confusion due to time zone crossing. See the EJA982 flight status page for this flight to view local times or setup timezone preferences in your user account.

Time Position Orientation Groundspeed Altitude Reporting Facility
EDT Latitude Longitude Course Direction KTS MPH feet Rate Location/Type
Thu 05:32:00 PM 43.7257 -123.1542 69° East  Level FlightAware Approximate
Thu 05:33:00 PM 43.7807 -122.9749 65° Northeast  Level FlightAware Approximate
Thu 05:33:23 PM 43.4550 -124.2628 71° East 288 331 7,400  Level Seattle Center
Thu 05:34:00 PM 43.8313 -122.7934 74° East  Level FlightAware Approximate
Thu 05:34:24 PM 43.4806 -124.1794 67° East 287 330 8,000  Level Seattle Center
Thu 05:35:00 PM 43.8861 -122.6165 77° East  Level FlightAware Approximate
Thu 05:35:25 PM 43.5147 -124.0569 69° East 292 336 10,500  Level Seattle Center
Thu 05:36:00 PM 43.9366 -122.4357 62° Northeast  Level FlightAware Approximate
Thu 05:36:26 PM 43.5481 -123.9297 70° East 341 392 11,500  Level Seattle Center
Thu 05:37:00 PM 43.9813 -122.2513 67° East  Level FlightAware Approximate
Thu 05:37:27 PM 43.5861 -123.7961 68° East 369 425 14,200  Level Seattle Center
Thu 05:38:00 PM 44.0328 -122.0691 71° East  Level FlightAware Approximate
Thu 05:38:28 PM 43.6253 -123.6589 68° East 381 438 16,600  Level Seattle Center
Thu 05:39:29 PM 43.6650 -123.5175 69° East 390 449 18,700 1,869 Climbing Seattle Center
Thu 05:40:30 PM 43.7056 -123.3708 69° East 403 464 20,400 1,770 Climbing Seattle Center
Thu 05:41:31 PM 43.7472 -123.2181 69° East 421 484 22,300 1,721 Climbing Seattle Center
Thu 05:42:32 PM 43.7892 -123.0633 69° East 429 494 23,900 1,672 Climbing Seattle Center
Thu 05:43:33 PM 43.8422 -122.8683 69° East 448 516 25,700 1,672 Climbing Seattle Center
Thu 05:44:34 PM 43.8878 -122.7017 69° East 463 533 27,300 1,574 Climbing Seattle Center
Thu 05:45:35 PM 43.9331 -122.5322 70° East 471 542 28,900 1,426 Climbing Seattle Center
Thu 05:46:36 PM 43.9792 -122.3589 70° East 480 552 30,200 1,377 Climbing Seattle Center
Thu 05:47:37 PM 44.0258 -122.1819 70° East 488 562 31,700 1,426 Climbing Seattle Center
Thu 05:48:38 PM 44.0722 -122.0036 70° East 492 566 33,100 1,475 Climbing Seattle Center
Thu 05:49:39 PM 44.1211 -121.8181 70° East 499 574 34,700 1,426 Climbing Seattle Center
Thu 05:50:40 PM 44.1872 -121.6478 62° Northeast 504 580 36,000 1,377 Climbing Seattle Center
Thu 05:51:41 PM 44.2544 -121.4772 61° Northeast 504 580 37,500 1,230 Climbing Seattle Center
Thu 05:52:42 PM 44.3003 -121.2958 70° East 502 578 38,500 1,033 Climbing Seattle Center
Thu 05:53:43 PM 44.3294 -121.1061 78° East 502 578 39,600 836 Climbing Seattle Center
Thu 05:54:44 PM 44.3575 -120.9192 78° East 497 572 40,200 689 Climbing Seattle Center
Thu 05:55:45 PM 44.3908 -120.6975 78° East 497 572 41,000 393 Climbing Seattle Center
Thu 05:56:46 PM 44.4189 -120.5072 78° East 497 572 41,000  Level Seattle Center
Thu 05:57:46 PM 44.4486 -120.3139 78° East 502 578 41,000  Level Seattle Center
Thu 05:58:47 PM 44.4767 -120.1192 79° East 512 589 41,000  Level Seattle Center
Thu 05:59:51 PM 44.5056 -119.9206 78° East 523 602 41,000  Level Seattle Center
Thu 06:00:52 PM 44.5344 -119.7233 78° East 523 602 41,000  Level Seattle Center
Thu 06:01:53 PM 44.5619 -119.5256 79° East 524 603 41,000  Level Seattle Center
Thu 06:02:54 PM 44.5956 -119.2864 79° East 525 604 41,000  Level Seattle Center
Thu 06:03:55 PM 44.6228 -119.0867 79° East 526 605 41,000  Level Seattle Center
Thu 06:04:56 PM 44.6492 -118.8858 79° East 526 605 41,000  Level Seattle Center
Thu 06:05:57 PM 44.6764 -118.6833 79° East 530 610 41,000  Level Seattle Center
Thu 06:06:58 PM 44.7031 -118.4811 79° East 529 609 41,000  Level Seattle Center
Thu 06:07:51 PM 44.7242 -118.3164 80° East 532 612 41,000  Level Salt Lake Center
Thu 06:08:53 PM 44.7544 -118.0706 80° East 534 615 41,000  Level Salt Lake Center
Thu 06:09:55 PM 44.7775 -117.8739 81° East 536 617 41,000  Level Salt Lake Center
Thu 06:10:57 PM 44.8069 -117.6428 80° East 538 619 41,000  Level Salt Lake Center
Thu 06:11:59 PM 44.8308 -117.4456 80° East 535 616 41,000  Level Salt Lake Center
Thu 06:13:00 PM 44.8547 -117.2464 80° East 537 618 41,000  Level Salt Lake Center
Thu 06:14:02 PM 44.8819 -117.0136 81° East 538 619 41,000  Level Salt Lake Center
Thu 06:15:04 PM 44.9050 -116.8139 81° East 538 619 41,000  Level Salt Lake Center
Thu 06:16:06 PM 44.9319 -116.5786 81° East 541 623 41,000  Level Salt Lake Center
Thu 06:17:08 PM 44.9544 -116.3767 81° East 541 623 41,000  Level Salt Lake Center
Thu 06:18:10 PM 44.9769 -116.1739 81° East 543 625 41,000  Level Salt Lake Center
Thu 06:19:11 PM 45.0019 -115.9375 81° East 543 625 41,000  Level Salt Lake Center
Thu 06:20:13 PM 45.0233 -115.7294 82° East 554 638 41,000  Level Salt Lake Center
Thu 06:21:15 PM 45.0481 -115.4933 81° East 545 627 41,000  Level Salt Lake Center
Thu 06:22:17 PM 45.0694 -115.2917 81° East 541 623 41,000  Level Salt Lake Center
Thu 06:23:19 PM 45.0917 -115.0539 82° East 545 627 41,000  Level Salt Lake Center
Thu 06:24:20 PM 45.1117 -114.8522 82° East 541 623 41,000  Level Salt Lake Center
Thu 06:25:22 PM 45.1306 -114.6489 82° East 543 625 41,000  Level Salt Lake Center
Thu 06:26:24 PM 45.1531 -114.4136 82° East 541 623 41,000  Level Salt Lake Center
Thu 06:27:26 PM 45.1706 -114.2117 83° East 540 621 41,000  Level Salt Lake Center
Thu 06:28:28 PM 45.1928 -113.9742 82° East 544 626 41,000  Level Salt Lake Center
Thu 06:29:30 PM 45.2089 -113.7808 83° East 540 621 41,000  Level Salt Lake Center
Thu 06:30:32 PM 45.2275 -113.5442 84° East 542 624 41,000  Level Salt Lake Center
Thu 06:31:33 PM 45.2450 -113.3397 83° East 544 626 41,000  Level Salt Lake Center
Thu 06:32:36 PM 45.2656 -113.1008 83° East 546 628 41,000  Level Salt Lake Center
Thu 06:33:37 PM 45.2814 -112.8950 84° East 548 631 41,000  Level Salt Lake Center
Thu 06:34:39 PM 45.3006 -112.6528 83° East 551 634 41,000  Level Salt Lake Center
Thu 06:35:41 PM 45.3169 -112.4444 84° East 552 635 41,000  Level Salt Lake Center
Thu 06:36:43 PM 45.3356 -112.2011 84° East 553 636 41,000  Level Salt Lake Center
Thu 06:37:45 PM 45.3489 -112.0092 84° East 553 636 41,000  Level Salt Lake Center
Thu 06:38:47 PM 45.3644 -111.7922 84° East 554 638 41,000  Level Salt Lake Center
Thu 06:39:49 PM 45.3817 -111.5317 85° East 555 639 41,000  Level Salt Lake Center
Thu 06:40:51 PM 45.3961 -111.3150 85° East 556 640 41,000  Level Salt Lake Center
Thu 06:41:53 PM 45.4106 -111.0992 84° East 556 640 41,000  Level Salt Lake Center
Thu 06:42:54 PM 45.4239 -110.8831 85° East 556 640 41,000  Level Salt Lake Center
Thu 06:43:56 PM 45.4367 -110.6669 85° East 554 638 41,000  Level Salt Lake Center
Thu 06:44:58 PM 45.4528 -110.4036 85° East 555 639 41,000  Level Salt Lake Center
Thu 06:46:00 PM 45.4639 -110.1925 86° East 558 642 41,000  Level Salt Lake Center
Thu 06:47:02 PM 45.4758 -109.9808 85° East 559 643 41,000  Level Salt Lake Center
Thu 06:48:04 PM 45.4889 -109.7308 86° East 567 652 41,000  Level Salt Lake Center
Thu 06:49:06 PM 45.5000 -109.5189 86° East 561 646 41,000  Level Salt Lake Center
Thu 06:50:07 PM 45.5114 -109.2683 86° East 567 652 41,000 49 Level Salt Lake Center
Thu 06:51:09 PM 45.5208 -109.0556 86° East 562 647 41,100 290 Climbing Salt Lake Center
Thu 06:52:11 PM 45.5317 -108.8083 86° East 556 640 41,600 484 Climbing Salt Lake Center
Thu 06:53:13 PM 45.5400 -108.6017 87° East 547 629 42,100 484 Climbing Salt Lake Center
Thu 06:54:15 PM 45.5481 -108.3961 87° East 541 623 42,600 488 Climbing Salt Lake Center
Thu 06:55:16 PM 45.5572 -108.1617 87° East 527 606 43,100 488 Climbing Salt Lake Center
Thu 06:56:18 PM 45.5636 -107.9614 87° East 525 604 43,600 532 Climbing Salt Lake Center
Thu 06:57:20 PM 45.5722 -107.7306 87° East 518 596 44,200 435 Climbing Salt Lake Center
Thu 06:58:22 PM 45.5786 -107.5325 87° East 519 597 44,500 293 Climbing Salt Lake Center
Thu 06:59:23 PM 45.5844 -107.3356 88° East 518 596 44,800 244 Climbing Salt Lake Center
Thu 07:00:25 PM 45.5914 -107.1056 87° East 519 597 45,000 97 Climbing Salt Lake Center
Thu 07:01:27 PM 45.5947 -106.9047 89° East 525 604 45,000  Level Salt Lake Center
Thu 07:02:29 PM 45.6000 -106.6706 88° East 527 606 45,000  Level Salt Lake Center
Thu 07:03:31 PM 45.6083 -106.4756 86° East 520 598 45,000  Level Salt Lake Center
Thu 07:04:32 PM 45.6122 -106.2411 89° East 527 606 45,000  Level Salt Lake Center
Thu 07:05:34 PM 45.6167 -106.0400 88° East 529 609 45,000  Level Salt Lake Center
Thu 07:06:36 PM 45.6203 -105.8375 88° East 532 612 45,000  Level Salt Lake Center
Thu 07:07:38 PM 45.6236 -105.6033 89° East 529 609 45,000  Level Salt Lake Center
Thu 07:08:39 PM 45.6269 -105.4006 89° East 532 612 45,000  Level Salt Lake Center
Thu 07:09:41 PM 45.6297 -105.1642 89° East 534 615 45,000  Level Salt Lake Center
Thu 07:10:43 PM 45.6322 -104.9619 89° East 532 612 45,000  Level Salt Lake Center
Thu 07:11:45 PM 45.6325 -104.7256 90° East 533 613 45,000  Level Salt Lake Center
Thu 07:12:47 PM 45.6336 -104.5228 89° East 533 613 45,000  Level Salt Lake Center
Thu 07:13:49 PM 45.6344 -104.2883 90° East 537 618 45,000  Level Salt Lake Center
Thu 07:14:50 PM 45.6347 -104.0761 90° East 538 619 45,000  Level Salt Lake Center
Thu 07:15:52 PM 45.6347 -103.8653 90° East 535 616 45,000  Level Salt Lake Center
Thu 07:16:54 PM 45.6350 -103.6550 90° East 533 613 45,000  Level Salt Lake Center
Thu 07:17:56 PM 45.6336 -103.4414 90° East 538 619 45,000 -48 Level Salt Lake Center
Thu 07:18:58 PM 45.6333 -103.2281 90° East 539 620 44,900  Descending Salt Lake Center
Thu 07:20:00 PM 45.6308 -102.9706 91° East 543 625 45,000 73 Climbing Salt Lake Center
Thu 07:20:20 PM 45.6308 -102.9350 90° East 538 619 45,000  Level Minneapolis Center
Thu 07:21:23 PM 45.6294 -102.7214 90° East 539 620 45,000  Level Minneapolis Center
Thu 07:22:25 PM 45.6267 -102.4897 91° East 542 624 45,000  Level Minneapolis Center
Thu 07:23:27 PM 45.6231 -102.2294 91° East 546 628 45,000  Level Minneapolis Center
Thu 07:24:29 PM 45.6181 -102.0144 92° East 543 625 45,000  Level Minneapolis Center
Thu 07:25:31 PM 45.6150 -101.7975 91° East 545 627 45,000  Level Minneapolis Center
Thu 07:26:33 PM 45.6111 -101.5811 91° East 546 628 45,000  Level Minneapolis Center
Thu 07:27:35 PM 45.6050 -101.3650 92° East 545 627 45,000  Level Minneapolis Center
Thu 07:28:37 PM 45.6014 -101.1494 91° East 544 626 45,000  Level Minneapolis Center
Thu 07:29:39 PM 45.5947 -100.9344 92° East 543 625 45,000  Level Minneapolis Center
Thu 07:30:41 PM 45.5903 -100.6686 91° East 551 634 45,000  Level Minneapolis Center
Thu 07:31:43 PM 45.5842 -100.4536 92° East 543 625 45,000  Level Minneapolis Center
Thu 07:32:45 PM 45.5756 -100.2400 93° East 538 619 45,000  Level Minneapolis Center
Thu 07:33:47 PM 45.5683 -100.0239 93° East 539 620 45,000  Level Minneapolis Center
Thu 07:34:50 PM 45.5622 -99.8078 92° East 541 623 45,000  Level Minneapolis Center
Thu 07:35:52 PM 45.5547 -99.5931 93° East 540 621 45,000  Level Minneapolis Center
Thu 07:36:54 PM 45.5467 -99.3794 93° East 538 619 45,000  Level Minneapolis Center
Thu 07:37:56 PM 45.5369 -99.1661 94° East 537 618 45,000  Level Minneapolis Center
Thu 07:38:58 PM 45.5253 -98.9092 94° East 539 620 45,000  Level Minneapolis Center
Thu 07:40:00 PM 45.5144 -98.6969 94° East 538 619 45,000  Level Minneapolis Center
Thu 07:41:02 PM 45.5056 -98.4842 93° East 537 618 45,000  Level Minneapolis Center
Thu 07:42:04 PM 45.4953 -98.2706 94° East 539 620 45,000  Level Minneapolis Center
Thu 07:43:06 PM 45.4828 -98.0422 94° East 538 619 45,000  Level Minneapolis Center
Thu 07:44:08 PM 45.4722 -97.8294 94° East 539 620 45,000  Level Minneapolis Center
Thu 07:45:10 PM 45.4603 -97.6172 95° East 539 620 45,000  Level Minneapolis Center
Thu 07:46:12 PM 45.4489 -97.4047 94° East 539 620 45,000  Level Minneapolis Center
Thu 07:47:14 PM 45.4331 -97.1500 95° East 539 620 45,000  Level Minneapolis Center
Thu 07:48:16 PM 45.4211 -96.9375 95° East 538 619 45,000  Level Minneapolis Center
Thu 07:49:18 PM 45.4067 -96.7247 95° East 540 621 45,000  Level Minneapolis Center
Thu 07:50:20 PM 45.3936 -96.5131 95° East 538 619 45,000  Level Minneapolis Center
Thu 07:51:22 PM 45.3803 -96.3017 95° East 538 619 45,000  Level Minneapolis Center
Thu 07:52:24 PM 45.3656 -96.0922 96° East 534 615 45,000  Level Minneapolis Center
Thu 07:53:26 PM 45.3517 -95.8814 95° East 535 616 45,000  Level Minneapolis Center
Thu 07:54:28 PM 45.3325 -95.6286 96° East 536 617 45,000  Level Minneapolis Center
Thu 07:55:30 PM 45.3183 -95.4192 95° East 533 613 45,000  Level Minneapolis Center
Thu 07:56:32 PM 45.3019 -95.2092 96° East 534 615 45,000  Level Minneapolis Center
Thu 07:57:34 PM 45.2856 -94.9986 96° East 537 618 45,000  Level Minneapolis Center
Thu 07:58:36 PM 45.2686 -94.7897 97° East 534 615 45,000  Level Minneapolis Center
Thu 07:59:38 PM 45.2494 -94.5553 97° East 531 611 45,000  Level Minneapolis Center
Thu 08:00:41 PM 45.2325 -94.3478 97° East 531 611 45,000  Level Minneapolis Center
Thu 08:01:43 PM 45.2144 -94.1411 97° East 530 610 45,000  Level Minneapolis Center
Thu 08:02:45 PM 45.1975 -93.9325 97° East 532 612 45,000  Level Minneapolis Center
Thu 08:03:47 PM 45.1783 -93.7239 97° East 534 615 45,000  Level Minneapolis Center
Thu 08:04:49 PM 45.1592 -93.5153 97° East 532 612 45,000  Level Minneapolis Center
Thu 08:05:51 PM 45.1364 -93.2656 97° East 531 611 45,000  Level Minneapolis Center
Thu 08:06:53 PM 45.1178 -93.0567 97° East 532 612 45,000  Level Minneapolis Center
Thu 08:07:55 PM 45.0994 -92.8472 97° East 532 612 45,000  Level Minneapolis Center
Thu 08:08:57 PM 45.0803 -92.6403 97° East 528 608 45,000  Level Minneapolis Center
Thu 08:09:59 PM 45.0608 -92.4328 97° East 531 611 45,000  Level Minneapolis Center
Thu 08:11:00 PM 45.0419 -92.2242 97° East 534 615 45,000  Level Minneapolis Center
Thu 08:12:02 PM 45.0194 -92.0175 99° East 534 615 45,000  Level Minneapolis Center
Thu 08:13:04 PM 44.9931 -91.7686 98° East 535 616 45,000  Level Minneapolis Center
Thu 08:14:06 PM 44.9711 -91.5614 98° East 535 616 45,000  Level Minneapolis Center
Thu 08:15:08 PM 44.9475 -91.3536 99° East 537 618 45,000  Level Minneapolis Center
Thu 08:16:10 PM 44.9250 -91.1456 99° East 537 618 45,000  Level Minneapolis Center
Thu 08:17:12 PM 44.9014 -90.9389 99° East 536 617 45,000  Level Minneapolis Center
Thu 08:18:14 PM 44.8767 -90.7128 99° East 537 618 45,000  Level Minneapolis Center
Thu 08:19:15 PM 44.8531 -90.5058 99° East 538 619 45,000  Level Minneapolis Center
Thu 08:20:17 PM 44.8261 -90.2878 100° East 541 623 45,000  Level Minneapolis Center
Thu 08:21:19 PM 44.8014 -90.0783 99° East 541 623 45,000  Level Minneapolis Center
Thu 08:22:21 PM 44.7758 -89.8717 100° East 537 618 45,000  Level Minneapolis Center
Thu 08:23:23 PM 44.7450 -89.6300 100° East 537 618 45,000  Level Minneapolis Center
Thu 08:24:25 PM 44.7192 -89.4225 100° East 536 617 45,000  Level Minneapolis Center
Thu 08:25:27 PM 44.6922 -89.2164 100° East 536 617 45,000  Level Minneapolis Center
Thu 08:26:29 PM 44.6656 -89.0103 100° East 537 618 45,000  Level Minneapolis Center
Thu 08:27:30 PM 44.6383 -88.8036 100° East 536 617 45,000  Level Minneapolis Center
Thu 08:28:32 PM 44.6103 -88.5972 101° East 537 618 45,000  Level Minneapolis Center
Thu 08:29:34 PM 44.5822 -88.3906 101° East 538 619 45,000  Level Minneapolis Center
Thu 08:30:36 PM 44.5458 -88.1486 102° East 541 623 45,000  Level Minneapolis Center
Thu 08:31:38 PM 44.5019 -87.9442 107° East 546 628 45,000  Level Minneapolis Center
Thu 08:32:40 PM 44.4581 -87.7392 107° East 547 629 45,000  Level Minneapolis Center
Thu 08:33:42 PM 44.4136 -87.5342 107° East 548 631 45,000  Level Minneapolis Center
Thu 08:34:44 PM 44.3706 -87.3317 106° East 545 627 45,000  Level Minneapolis Center
Thu 08:35:46 PM 44.3231 -87.1181 107° East 539 620 45,000  Level Minneapolis Center
Thu 08:36:48 PM 44.2792 -86.9189 107° East 540 621 45,000  Level Minneapolis Center
Thu 08:37:50 PM 44.2350 -86.7200 107° East 541 623 45,000  Level Minneapolis Center
Thu 08:38:52 PM 44.1911 -86.5231 107° East 538 619 45,000  Level Minneapolis Center
Thu 08:39:54 PM 44.1372 -86.2869 108° East 539 620 45,000  Level Minneapolis Center
Thu 08:40:56 PM 44.0961 -86.1042 107° East 539 620 45,000  Level Minneapolis Center
Thu 08:41:58 PM 44.0497 -85.9058 108° East 538 619 45,000  Level Minneapolis Center
Thu 08:43:00 PM 44.0050 -85.7072 107° East 539 620 45,000  Level Minneapolis Center
Thu 08:44:02 PM 43.9481 -85.4697 108° East 540 621 45,000  Level Minneapolis Center
Thu 08:45:04 PM 43.9022 -85.2719 108° East 538 619 45,000  Level Minneapolis Center
Thu 08:46:06 PM 43.8550 -85.0733 108° East 540 621 45,000  Level Minneapolis Center
Thu 08:47:09 PM 43.8069 -84.8781 109° East 538 619 45,000  Level Minneapolis Center
Thu 08:48:11 PM 43.7589 -84.6781 108° East 539 620 45,000  Level Minneapolis Center
Thu 08:49:13 PM 43.7100 -84.4836 109° East 541 623 45,000  Level Minneapolis Center
Thu 08:50:15 PM 43.6600 -84.2856 109° East 543 625 45,000  Level Minneapolis Center
Thu 08:51:17 PM 43.6003 -84.0489 109° East 544 626 45,000  Level Minneapolis Center
Thu 08:52:21 PM 43.5517 -83.8572 109° East 538 619 45,000  Level Cleveland Center
Thu 08:53:21 PM 43.5008 -83.6628 110° East 538 619 45,000  Level Cleveland Center
Thu 08:54:21 PM 43.4497 -83.4628 109° East 544 626 45,000  Level Cleveland Center
Thu 08:55:21 PM 43.4003 -83.2633 109° East 544 626 45,000  Level Cleveland Center
Thu 08:55:51 PM 43.3667 -83.1500 112° Southeast 550 633 45,000  Level Toronto Center
Thu 08:56:21 PM 43.3464 -83.0667 108° East 544 626 45,000  Level Cleveland Center
Thu 08:57:21 PM 43.2961 -82.8736 110° East 544 626 45,000  Level Cleveland Center
Thu 08:58:21 PM 43.2414 -82.6778 111° Southeast 544 626 45,000  Level Cleveland Center
Thu 08:58:51 PM 43.2000 -82.5333 111° Southeast 550 633 45,000  Level Toronto Center
Thu 08:59:51 PM 43.1333 -82.3500 116° Southeast 550 633 45,000  Level Toronto Center
Thu 09:00:51 PM 43.0833 -82.1500 109° East 550 633 45,000  Level Toronto Center
Thu 09:01:51 PM 43.0167 -81.9667 116° Southeast 550 633 45,000  Level Toronto Center
Thu 09:02:51 PM 42.9667 -81.7500 107° East 550 633 45,000  Level Toronto Center
Thu 09:03:51 PM 42.9167 -81.5667 110° East 550 633 45,000  Level Toronto Center
Thu 09:04:51 PM 42.8500 -81.3833 116° Southeast 550 633 45,000  Level Toronto Center
Thu 09:05:33 PM 42.8311 -81.2881 105° East 538 619 45,000  Level Cleveland Center
Thu 09:06:33 PM 42.7675 -81.0922 114° Southeast 547 629 45,000  Level Cleveland Center
Thu 09:07:33 PM 42.7036 -80.8997 114° Southeast 547 629 45,000  Level Cleveland Center
Thu 09:08:33 PM 42.6122 -80.7100 123° Southeast 547 629 45,000  Level Cleveland Center
Thu 09:09:33 PM 42.5228 -80.5381 125° Southeast 556 640 45,000  Level Cleveland Center
Thu 09:10:33 PM 42.4350 -80.3694 125° Southeast 556 640 45,000  Level Cleveland Center
Thu 09:11:33 PM 42.3428 -80.1983 126° Southeast 561 646 45,000 -200 Level Cleveland Center
Thu 09:12:33 PM 42.2525 -80.0306 126° Southeast 561 646 44,600 -700 Descending Cleveland Center
Thu 09:13:33 PM 42.1642 -79.8606 125° Southeast 561 646 43,600 -1,000 Descending Cleveland Center
Thu 09:14:33 PM 42.0733 -79.6936 126° Southeast 561 646 42,600 -1,000 Descending Cleveland Center
Thu 09:15:33 PM 41.9822 -79.5244 126° Southeast 561 646 41,600 -1,050 Descending Cleveland Center
Thu 09:16:33 PM 41.8889 -79.3558 127° Southeast 561 646 40,500 -1,150 Descending Cleveland Center
Thu 09:17:33 PM 41.7972 -79.1878 126° Southeast 566 651 39,300 -1,600 Descending Cleveland Center
Thu 09:18:33 PM 41.7011 -79.0119 126° Southeast 573 659 37,300 -1,950 Descending Cleveland Center
Thu 09:19:33 PM 41.6156 -78.8583 127° Southeast 580 667 35,400 -2,150 Descending Cleveland Center
Thu 09:20:33 PM 41.5233 -78.6944 127° Southeast 573 659 33,000 -3,150 Descending Cleveland Center
Thu 09:21:33 PM 41.4331 -78.5281 126° Southeast 566 651 29,100 -3,800 Descending Cleveland Center
Thu 09:22:33 PM 41.3422 -78.3650 127° Southeast 560 644 25,400 -3,366 Descending Cleveland Center
Thu 09:22:55 PM 41.3017 -78.2972 129° Southeast 552 635 24,500 -2,203 Descending New York Center
Thu 09:23:52 PM 41.2128 -78.1494 129° Southeast 551 634 22,500 -2,085 Descending New York Center
Thu 09:24:53 PM 41.1086 -78.0167 136° Southeast 526 605 20,400 -2,016 Descending New York Center
Thu 09:25:54 PM 41.0053 -77.8958 139° Southeast 514 592 18,400 -1,967 Descending New York Center
Thu 09:26:55 PM 40.9064 -77.7756 137° Southeast 498 573 16,400 -2,017 Descending New York Center
Thu 09:27:53 PM 40.8108 -77.6614 138° Southeast 487 560 14,400 -2,067 Descending New York Center
Thu 09:28:54 PM 40.7169 -77.5533 139° Southeast 465 535 12,300 -1,934 Descending New York Center
Thu 09:29:54 PM 40.6406 -77.4667 139° Southeast 433 498 10,500 -1,289 Descending New York Center
Thu 09:30:55 PM 40.5644 -77.3772 138° Southeast 357 411 9,700 -706 Descending New York Center
Thu 09:31:53 PM 40.5056 -77.3086 138° Southeast 317 365 9,100 -350 Descending New York Center
Thu 09:32:55 PM 40.4372 -77.2286 138° Southeast 309 356 9,000 -800 Descending New York Center
Thu 09:33:53 PM 40.3822 -77.1636 138° Southeast 298 343 7,500 -2,034 Descending New York Center
Thu 09:34:53 PM 40.3322 -77.0853 130° Southeast 271 312 5,000 -2,269 Descending New York Center
Thu 09:35:52 PM 40.2944 -77.0111 124° Southeast 263 303 3,000 -1,550 Descending New York Center
Thu 09:36:53 PM 40.2758 -76.9278 106° East 254 292 1,900 984 Descending New York Center
Thu 09:37:54 PM 40.2328 -76.8342 121° Southeast 254 292 5,000 1,537 Climbing New York Center
Thu 09:38:54 PM 40.2017 -76.7500 116° Southeast 254 292 5,000  Level New York Center
Thu 09:39:54 PM 40.1683 -76.6656 117° Southeast 254 292 5,000  Level New York Center
Thu 09:40:52 PM 40.1372 -76.5814 116° Southeast 254 292 5,000  Level New York Center
Thu 09:41:54 PM 40.1372 -76.5814 21° North 254 292 5,000  Level New York Center

Login

Don't have an account? Register now (free) for customized features, flight alerts, and more!